Time;durP1;ratioP1;P1;durP2;ratioP2;P2;SDS_P1;SDS_P2;PMS_P1;PMS_P2;Temp;Humidity;BMP_temperature;BMP_pressure;BME280_temperature;BME280_humidity;BME280_pressure;Samples;Min_cycle;Max_cycle;Signal;HPM_P1;HPM_P2
2022/08/10 00:02:42;;;;;;;;;;;16.40;99.90;;;;;;5036181;28;20124;-75
2022/08/10 00:05:08;;;;;;;4.38;3.60;;;16.50;99.90;;;;;;5039327;28;20339;-74
2022/08/10 00:07:34;;;;;;;4.85;3.45;;;16.50;99.90;;;;;;5032490;28;20065;-74
2022/08/10 00:09:59;;;;;;;4.28;3.85;;;16.50;99.90;;;;;;5040828;28;20060;-75
2022/08/10 00:12:25;;;;;;;6.03;4.13;;;16.50;99.90;;;;;;5037063;28;20045;-75
2022/08/10 00:14:50;;;;;;;4.97;4.00;;;16.50;99.90;;;;;;5041625;28;20033;-74
2022/08/10 00:17:16;;;;;;;5.43;4.43;;;16.60;99.90;;;;;;5039475;28;20435;-74
2022/08/10 00:19:41;;;;;;;6.28;4.63;;;16.60;99.90;;;;;;5037782;28;20478;-74
2022/08/10 00:22:07;;;;;;;5.93;4.80;;;16.60;99.90;;;;;;5039517;28;20041;-75
2022/08/10 00:24:32;;;;;;;6.57;4.80;;;16.60;99.90;;;;;;5038420;28;20046;-73
2022/08/10 00:26:58;;;;;;;5.93;4.80;;;16.60;99.90;;;;;;5033354;28;20116;-74
2022/08/10 00:29:24;;;;;;;5.55;4.72;;;16.60;99.90;;;;;;5034874;28;20138;-74
2022/08/10 00:31:49;;;;;;;6.03;4.78;;;16.60;99.90;;;;;;5035755;28;20410;-75
2022/08/10 00:34:15;;;;;;;6.40;5.53;;;16.60;99.90;;;;;;5031957;28;20044;-74
2022/08/10 00:36:40;;;;;;;7.07;5.18;;;16.50;99.90;;;;;;5039706;28;20394;-75
2022/08/10 00:39:06;;;;;;;7.68;5.65;;;16.50;99.90;;;;;;5037142;28;20075;-74
2022/08/10 00:41:31;;;;;;;6.20;5.03;;;16.50;99.90;;;;;;5041334;28;20076;-76
2022/08/10 00:43:57;;;;;;;5.57;4.60;;;16.50;99.90;;;;;;5039805;28;20039;-75
2022/08/10 00:46:22;;;;;;;8.75;5.13;;;16.40;99.90;;;;;;5041703;28;20430;-76
2022/08/10 00:48:48;;;;;;;6.57;4.47;;;16.40;99.90;;;;;;5040713;28;20040;-74
2022/08/10 00:51:14;;;;;;;5.35;4.10;;;16.50;99.90;;;;;;5038410;28;20085;-75
2022/08/10 00:53:40;;;;;;;6.63;4.50;;;16.40;99.90;;;;;;5034399;28;20049;-75
2022/08/10 00:56:06;;;;;;;5.85;4.50;;;16.30;99.90;;;;;;5037079;28;20392;-75
2022/08/10 00:58:33;;;;;;;7.05;5.15;;;16.40;99.90;;;;;;5039249;28;20160;-73
2022/08/10 01:00:58;;;;;;;7.55;5.45;;;16.40;99.90;;;;;;5031451;28;20037;-75
2022/08/10 01:03:24;;;;;;;7.38;5.63;;;16.30;99.90;;;;;;5037091;28;20427;-76
2022/08/10 01:06:01;;;;;;;6.90;5.90;;;16.40;99.90;;;;;;5033961;28;21835;-76
2022/08/10 01:08:51;;;;;;;6.78;6.07;;;16.30;99.90;;;;;;5031524;28;20032;-75
2022/08/10 01:11:45;;;;;;;7.18;5.72;;;16.30;99.90;;;;;;5036957;28;20102;-75
2022/08/10 01:14:31;;;;;;;6.32;5.72;;;16.30;99.90;;;;;;5037749;28;20059;-75
2022/08/10 01:17:05;;;;;;;6.80;5.20;;;16.20;99.90;;;;;;5039479;28;20040;-74
2022/08/10 01:19:58;;;;;;;6.47;5.57;;;16.20;99.90;;;;;;5031289;28;20075;-74
2022/08/10 01:22:29;;;;;;;5.95;4.95;;;16.20;99.90;;;;;;5032990;28;20041;-77
2022/08/10 01:25:32;;;;;;;8.30;5.35;;;16.10;99.90;;;;;;5037280;28;20036;-76
2022/08/10 01:28:16;;;;;;;9.63;6.38;;;16.10;99.90;;;;;;5037873;28;20483;-75
2022/08/10 01:30:44;;;;;;;7.93;6.07;;;16.10;99.90;;;;;;5031307;28;20037;-75
2022/08/10 01:33:17;;;;;;;6.57;5.60;;;16.10;99.90;;;;;;5035480;28;20034;-75
2022/08/10 01:36:03;;;;;;;6.63;5.80;;;16.10;99.90;;;;;;5030400;28;20041;-75
2022/08/10 01:38:34;;;;;;;6.82;5.43;;;16.00;99.90;;;;;;5035965;28;20060;-75
2022/08/10 01:41:17;;;;;;;9.20;5.82;;;16.00;99.90;;;;;;5037668;28;20446;-75
2022/08/10 01:43:49;;;;;;;7.22;5.65;;;16.00;99.90;;;;;;5036133;28;20038;-74
2022/08/10 01:46:18;;;;;;;6.55;5.20;;;15.90;99.90;;;;;;5040460;28;20044;-75
2022/08/10 01:48:49;;;;;;;7.20;5.25;;;15.80;99.90;;;;;;5038592;28;20037;-74
2022/08/10 01:51:20;;;;;;;5.80;4.80;;;15.80;99.90;;;;;;5040186;28;20111;-76
2022/08/10 01:53:52;;;;;;;5.28;4.75;;;15.70;99.90;;;;;;5039063;28;20037;-75
2022/08/10 01:56:21;;;;;;;6.03;5.10;;;15.70;99.90;;;;;;5033246;28;20124;-75
2022/08/10 01:58:51;;;;;;;8.10;5.03;;;15.70;99.90;;;;;;5039390;28;20029;-75
2022/08/10 02:01:19;;;;;;;6.88;5.50;;;15.70;99.90;;;;;;5038559;28;20056;-76
2022/08/10 02:03:49;;;;;;;7.35;5.85;;;15.70;99.90;;;;;;5036254;28;20407;-76
2022/08/10 02:06:17;;;;;;;7.13;5.70;;;15.70;99.90;;;;;;5031000;28;20037;-75
2022/08/10 02:08:45;;;;;;;7.95;4.97;;;15.70;99.90;;;;;;5034872;28;20450;-74
2022/08/10 02:11:13;;;;;;;7.43;4.70;;;15.70;99.90;;;;;;5034751;28;20042;-75
2022/08/10 02:13:41;;;;;;;5.55;4.60;;;15.60;99.90;;;;;;5033079;28;20040;-75
2022/08/10 02:16:09;;;;;;;5.53;4.72;;;15.40;99.90;;;;;;5037786;28;20044;-75
2022/08/10 02:18:35;;;;;;;7.00;4.70;;;15.40;99.90;;;;;;5032308;28;21737;-74
2022/08/10 02:21:03;;;;;;;5.43;4.93;;;15.40;99.90;;;;;;5034511;28;20083;-75
2022/08/10 02:23:33;;;;;;;6.60;5.07;;;15.40;99.90;;;;;;5031877;28;20037;-75
2022/08/10 02:26:00;;;;;;;6.85;5.05;;;15.40;99.90;;;;;;5037438;28;20057;-73
2022/08/10 02:28:29;;;;;;;5.70;4.28;;;15.50;99.90;;;;;;5037174;28;20037;-76
2022/08/10 02:31:16;;;;;;;6.07;5.13;;;15.40;99.90;;;;;;5043233;28;20056;-75
2022/08/10 02:33:46;;;;;;;7.50;5.60;;;15.40;99.90;;;;;;5032244;28;20053;-75
2022/08/10 02:36:13;;;;;;;9.00;5.90;;;15.40;99.90;;;;;;5035024;28;20038;-75
2022/08/10 02:38:48;;;;;;;8.18;5.63;;;15.50;99.90;;;;;;5036025;28;20107;-74
2022/08/10 02:41:44;;;;;;;7.40;6.07;;;15.50;99.90;;;;;;5033537;28;20033;-75
2022/08/10 02:44:22;;;;;;;7.97;6.47;;;15.50;99.90;;;;;;5036592;28;20084;-75
2022/08/10 02:46:58;;;;;;;11.23;6.57;;;15.50;99.90;;;;;;5032502;28;20034;-74
2022/08/10 02:49:34;;;;;;;8.65;5.82;;;15.60;99.90;;;;;;5033489;28;20376;-74
2022/08/10 02:52:10;;;;;;;8.38;6.57;;;15.50;99.90;;;;;;5028064;28;20488;-76
2022/08/10 02:54:41;;;;;;;8.23;6.63;;;15.50;99.90;;;;;;5033696;28;20038;-74
2022/08/10 02:57:27;;;;;;;7.30;6.32;;;15.50;99.90;;;;;;5031803;28;20510;-76
2022/08/10 02:59:57;;;;;;;8.38;6.20;;;15.60;99.90;;;;;;5038036;28;20115;-75
2022/08/10 03:02:31;;;;;;;8.82;6.25;;;15.50;99.90;;;;;;5037239;28;20041;-76
2022/08/10 03:05:03;;;;;;;8.10;5.43;;;15.50;99.90;;;;;;5035499;28;20040;-76
2022/08/10 03:07:36;;;;;;;6.82;5.30;;;15.50;99.90;;;;;;5034977;28;20041;-75
2022/08/10 03:10:04;;;;;;;6.70;5.47;;;15.50;99.90;;;;;;5036501;28;20049;-75
2022/08/10 03:12:34;;;;;;;6.68;5.22;;;15.50;99.90;;;;;;5032813;28;20067;-75
2022/08/10 03:15:00;;;;;;;6.15;5.00;;;15.40;99.90;;;;;;5033937;28;20034;-76
2022/08/10 03:17:29;;;;;;;7.13;5.43;;;15.30;99.90;;;;;;5036757;28;20045;-76
2022/08/10 03:19:56;;;;;;;6.95;5.35;;;15.30;99.90;;;;;;5038845;28;20124;-76
2022/08/10 03:22:22;;;;;;;7.47;5.22;;;15.20;99.90;;;;;;5032920;28;20094;-76
2022/08/10 03:24:49;;;;;;;5.53;4.90;;;15.20;99.90;;;;;;5035314;28;20045;-76
2022/08/10 03:27:16;;;;;;;5.18;4.05;;;15.20;99.90;;;;;;5031714;28;20049;-75
2022/08/10 03:29:43;;;;;;;4.65;3.75;;;15.20;99.90;;;;;;5034841;28;20037;-76
2022/08/10 03:32:10;;;;;;;4.93;3.88;;;15.10;99.90;;;;;;5035402;28;20064;-74
2022/08/10 03:34:36;;;;;;;6.03;4.70;;;15.00;99.90;;;;;;5031471;28;20048;-75
2022/08/10 03:37:01;;;;;;;6.57;4.45;;;14.90;99.90;;;;;;5034920;28;20029;-74
2022/08/10 03:39:27;;;;;;;5.68;4.80;;;15.00;99.90;;;;;;5039531;28;20033;-76
2022/08/10 03:41:56;;;;;;;5.57;4.85;;;14.90;99.90;;;;;;5041197;28;20184;-75
2022/08/10 03:44:28;;;;;;;6.10;4.95;;;14.90;99.90;;;;;;5039261;28;21725;-75
2022/08/10 03:46:54;;;;;;;5.90;4.47;;;15.00;99.90;;;;;;5042351;28;20427;-75
2022/08/10 03:49:20;;;;;;;4.78;3.38;;;15.00;99.90;;;;;;5040386;28;20045;-76
2022/08/10 03:51:48;;;;;;;4.82;3.63;;;14.90;99.90;;;;;;5040129;28;21779;-76
2022/08/10 03:54:16;;;;;;;6.50;3.65;;;14.90;99.90;;;;;;5034653;28;20048;-75
2022/08/10 03:56:42;;;;;;;7.15;4.38;;;14.80;99.90;;;;;;5038340;28;20029;-75
2022/08/10 03:59:11;;;;;;;5.22;4.45;;;14.80;99.90;;;;;;5036807;28;20033;-75
2022/08/10 04:01:40;;;;;;;5.30;4.55;;;14.80;99.90;;;;;;5035443;28;20406;-76
2022/08/10 04:04:05;;;;;;;4.80;4.30;;;14.80;99.90;;;;;;5041565;28;20420;-76
2022/08/10 04:06:31;;;;;;;6.88;4.45;;;14.80;99.90;;;;;;5035803;28;20044;-76
2022/08/10 04:08:57;;;;;;;5.63;4.82;;;14.80;99.90;;;;;;5037614;28;20641;-75
2022/08/10 04:11:23;;;;;;;5.88;4.30;;;14.80;99.90;;;;;;5034603;28;20037;-75
2022/08/10 04:13:48;;;;;;;6.68;4.65;;;14.80;99.90;;;;;;5034157;28;20048;-75
2022/08/10 04:16:14;;;;;;;7.00;5.00;;;14.80;99.90;;;;;;5037743;28;20057;-75
2022/08/10 04:18:39;;;;;;;7.25;5.35;;;14.80;99.90;;;;;;5036342;28;20053;-76
2022/08/10 04:21:13;;;;;;;7.15;5.55;;;14.80;99.90;;;;;;5038801;28;20048;-75
2022/08/10 04:23:43;;;;;;;11.85;6.30;;;14.90;99.90;;;;;;5038621;28;20091;-76
2022/08/10 04:26:10;;;;;;;7.20;5.30;;;15.00;99.90;;;;;;5039825;28;20530;-75
2022/08/10 04:28:35;;;;;;;8.30;5.82;;;14.90;99.90;;;;;;5036175;28;20041;-75
2022/08/10 04:31:03;;;;;;;6.97;5.68;;;15.00;99.90;;;;;;5035625;28;20510;-76
2022/08/10 04:33:31;;;;;;;6.80;6.10;;;15.00;99.90;;;;;;5034367;28;20494;-74
2022/08/10 04:35:58;;;;;;;7.82;5.90;;;15.00;99.90;;;;;;5038694;28;20032;-74
2022/08/10 04:38:26;;;;;;;7.38;6.07;;;15.10;99.90;;;;;;5034178;28;20075;-75
2022/08/10 04:40:52;;;;;;;9.50;6.53;;;15.20;99.90;;;;;;5037707;28;20045;-74
2022/08/10 04:43:18;;;;;;;8.18;5.93;;;15.20;99.90;;;;;;5038241;28;20071;-75
2022/08/10 04:45:44;;;;;;;8.35;6.07;;;15.30;99.90;;;;;;5034190;28;20076;-76
2022/08/10 04:48:10;;;;;;;8.88;6.25;;;15.30;99.90;;;;;;5033579;28;20033;-76
2022/08/10 04:50:35;;;;;;;9.48;6.07;;;15.40;99.90;;;;;;5035467;28;20037;-75
2022/08/10 04:53:01;;;;;;;8.43;6.28;;;15.40;99.90;;;;;;5036719;28;20087;-75
2022/08/10 04:55:26;;;;;;;8.27;6.68;;;15.60;99.90;;;;;;5038297;28;20025;-75
2022/08/10 04:57:52;;;;;;;10.32;6.78;;;15.60;99.90;;;;;;5031713;28;20033;-76
2022/08/10 05:00:18;;;;;;;10.85;6.88;;;15.60;99.90;;;;;;5034916;28;20090;-76
2022/08/10 05:02:43;;;;;;;10.05;7.10;;;15.70;99.90;;;;;;5034769;28;20069;-75
2022/08/10 05:05:09;;;;;;;8.57;6.53;;;15.80;99.90;;;;;;5036266;28;20118;-76
2022/08/10 05:07:35;;;;;;;8.70;7.22;;;15.90;99.90;;;;;;5036753;28;20037;-76
2022/08/10 05:10:00;;;;;;;9.38;7.22;;;16.00;99.90;;;;;;5038349;28;20036;-76
2022/08/10 05:12:26;;;;;;;8.85;7.07;;;16.00;99.90;;;;;;5033969;28;20111;-75
2022/08/10 05:14:52;;;;;;;9.90;7.20;;;16.20;99.90;;;;;;5034660;28;20159;-74
2022/08/10 05:17:18;;;;;;;12.40;7.40;;;16.20;99.90;;;;;;5029588;28;20052;-76
2022/08/10 05:19:44;;;;;;;12.13;7.63;;;16.40;99.90;;;;;;5032703;28;20072;-76
2022/08/10 05:22:09;;;;;;;7.78;6.32;;;16.60;99.90;;;;;;5037301;28;20147;-76
2022/08/10 05:24:35;;;;;;;13.13;6.95;;;16.70;99.90;;;;;;5036208;28;20057;-76
2022/08/10 05:27:01;;;;;;;9.00;6.57;;;16.80;99.90;;;;;;5028468;28;20056;-75
2022/08/10 05:29:26;;;;;;;10.82;6.80;;;16.90;99.90;;;;;;5028797;28;20042;-76
2022/08/10 05:31:52;;;;;;;8.68;6.32;;;17.00;99.90;;;;;;5033699;28;20554;-76
2022/08/10 05:34:20;;;;;;;10.57;8.23;;;17.10;99.90;;;;;;5036621;28;20116;-76
2022/08/10 05:36:46;;;;;;;15.75;6.30;;;17.10;99.90;;;;;;5034637;28;20048;-76
2022/08/10 05:39:14;;;;;;;9.25;6.45;;;17.30;99.90;;;;;;5031727;28;20033;-76
2022/08/10 05:41:40;;;;;;;9.50;6.75;;;17.40;99.90;;;;;;5030508;28;20106;-76
2022/08/10 05:44:06;;;;;;;10.73;6.65;;;17.60;99.90;;;;;;5041751;28;20071;-74
2022/08/10 05:46:32;;;;;;;10.75;6.30;;;17.70;99.90;;;;;;5037238;28;20033;-75
2022/08/10 05:48:57;;;;;;;9.88;6.68;;;17.80;99.90;;;;;;5037325;28;20765;-75
2022/08/10 05:51:24;;;;;;;9.20;6.50;;;18.00;99.90;;;;;;5033434;28;20041;-76
2022/08/10 05:53:49;;;;;;;10.65;6.97;;;18.10;99.90;;;;;;5034955;28;20057;-76
2022/08/10 05:56:15;;;;;;;7.93;6.38;;;18.20;99.90;;;;;;5038646;28;20124;-75
2022/08/10 05:58:41;;;;;;;10.30;6.97;;;18.30;99.90;;;;;;5030520;28;20046;-77
2022/08/10 06:01:11;;;;;;;7.47;5.97;;;18.40;99.90;;;;;;5040213;28;20036;-76
2022/08/10 06:03:46;;;;;;;8.70;6.47;;;18.50;99.90;;;;;;5037894;28;20045;-74
2022/08/10 06:06:16;;;;;;;8.25;6.43;;;18.60;99.90;;;;;;5041162;28;20045;-75
2022/08/10 06:08:45;;;;;;;9.10;6.45;;;18.70;99.90;;;;;;5030777;28;20530;-75
2022/08/10 06:11:12;;;;;;;10.35;6.35;;;18.80;99.90;;;;;;5037936;28;20041;-75
2022/08/10 06:16:28;;;;;;;9.57;6.30;;;18.80;99.90;;;;;;5037348;28;20423;-75
2022/08/10 06:18:55;;;;;;;11.32;6.40;;;18.90;99.90;;;;;;5034980;28;20048;-75
2022/08/10 06:21:21;;;;;;;8.65;5.55;;;19.00;99.90;;;;;;5033616;28;20037;-76
2022/08/10 06:23:48;;;;;;;8.05;6.20;;;19.20;99.90;;;;;;5033004;28;20159;-76
2022/08/10 06:26:14;;;;;;;9.10;5.57;;;19.20;99.90;;;;;;5034713;28;20714;-78
2022/08/10 06:28:46;;;;;;;7.78;5.78;;;19.30;99.90;;;;;;5042890;28;20049;-76
2022/08/10 06:31:13;;;;;;;8.07;5.07;;;19.40;99.90;;;;;;5034256;28;20056;-76
2022/08/10 06:33:40;;;;;;;6.47;5.40;;;19.50;99.90;;;;;;5027503;28;20492;-76
2022/08/10 06:36:07;;;;;;;6.05;5.07;;;19.70;99.90;;;;;;5030662;28;21613;-75
2022/08/10 06:38:36;;;;;;;6.30;4.78;;;19.80;99.90;;;;;;5042892;28;20522;-75
2022/08/10 06:41:12;;;;;;;6.25;4.82;;;19.90;99.90;;;;;;5035834;28;20029;-77
2022/08/10 06:43:44;;;;;;;7.10;4.28;;;20.00;99.90;;;;;;5037872;28;20063;-77
2022/08/10 06:46:15;;;;;;;5.82;4.07;;;20.10;99.90;;;;;;5046480;28;20044;-77
2022/08/10 06:48:48;;;;;;;7.68;4.03;;;20.30;99.90;;;;;;5039254;28;20048;-77
2022/08/10 06:51:21;;;;;;;7.53;4.00;;;20.30;99.90;;;;;;5036047;28;20034;-75
2022/08/10 06:53:50;;;;;;;7.25;4.45;;;20.40;99.90;;;;;;5044718;28;20380;-76
2022/08/10 06:56:20;;;;;;;6.07;4.10;;;20.50;99.90;;;;;;5039345;28;20060;-75
2022/08/10 06:58:52;;;;;;;5.30;3.80;;;20.50;99.90;;;;;;5031112;28;20057;-75
2022/08/10 07:01:26;;;;;;;6.00;4.10;;;20.60;99.90;;;;;;5030161;28;20099;-76
2022/08/10 07:04:17;;;;;;;6.88;4.15;;;20.70;99.90;;;;;;5029716;28;20510;-75
2022/08/10 07:06:45;;;;;;;7.20;4.20;;;20.80;99.90;;;;;;5037527;28;20038;-75
2022/08/10 07:09:14;;;;;;;6.28;4.13;;;20.90;99.90;;;;;;5030228;28;20041;-75
2022/08/10 07:11:42;;;;;;;9.52;4.25;;;21.00;99.90;;;;;;5030903;28;20112;-76
2022/08/10 07:14:11;;;;;;;4.13;3.47;;;21.20;99.90;;;;;;5030648;28;20052;-77
2022/08/10 07:16:39;;;;;;;5.07;3.53;;;21.30;99.90;;;;;;5031965;28;20041;-74
2022/08/10 07:19:08;;;;;;;5.60;3.53;;;21.40;99.90;;;;;;5034306;28;20037;-76
2022/08/10 07:21:34;;;;;;;5.45;3.42;;;21.50;99.90;;;;;;5022033;28;20052;-76
2022/08/10 07:24:01;;;;;;;5.10;3.50;;;21.60;99.90;;;;;;5019977;28;20030;-76
2022/08/10 07:26:29;;;;;;;4.78;3.58;;;21.70;99.90;;;;;;5014293;28;20041;-76
2022/08/10 07:28:56;;;;;;;7.97;3.63;;;21.80;99.90;;;;;;5016333;28;20038;-75
2022/08/10 07:31:23;;;;;;;5.57;3.05;;;21.80;99.90;;;;;;5014097;28;20495;-76
2022/08/10 07:33:52;;;;;;;5.22;3.22;;;22.00;99.90;;;;;;5013673;28;20029;-75
2022/08/10 07:36:20;;;;;;;6.95;2.92;;;22.10;99.90;;;;;;5013945;28;20042;-76
2022/08/10 07:38:48;;;;;;;5.22;3.17;;;22.10;99.90;;;;;;5013706;28;20039;-76
2022/08/10 07:41:18;;;;;;;5.72;3.20;;;22.20;99.90;;;;;;5015859;28;20514;-75
2022/08/10 07:43:45;;;;;;;5.20;2.63;;;22.30;99.90;;;;;;5015527;28;20044;-76
2022/08/10 07:46:13;;;;;;;4.97;3.20;;;22.30;99.90;;;;;;5013990;28;20512;-75
2022/08/10 07:48:46;;;;;;;7.22;3.50;;;22.40;99.90;;;;;;5013459;28;20052;-75
2022/08/10 07:51:12;;;;;;;3.95;2.97;;;22.50;99.90;;;;;;5024865;28;20487;-77
2022/08/10 07:53:45;;;;;;;5.13;2.80;;;22.60;99.90;;;;;;5032105;28;20041;-75
2022/08/10 07:56:11;;;;;;;7.38;2.80;;;22.70;99.90;;;;;;5033070;28;20500;-75
2022/08/10 07:58:54;;;;;;;6.88;3.10;;;22.90;99.90;;;;;;5034961;28;20076;-76
2022/08/10 08:01:23;;;;;;;4.15;2.53;;;23.00;99.90;;;;;;5032963;28;20041;-74
2022/08/10 08:03:50;;;;;;;6.25;2.83;;;23.10;99.90;;;;;;5033106;28;20499;-75
2022/08/10 08:06:16;;;;;;;4.13;3.10;;;23.20;99.90;;;;;;5032972;28;20045;-75
2022/08/10 08:08:43;;;;;;;3.33;2.78;;;23.20;99.90;;;;;;5029639;28;20048;-75
2022/08/10 08:11:10;;;;;;;5.25;2.40;;;23.30;99.90;;;;;;5031280;28;20139;-75
2022/08/10 08:13:37;;;;;;;3.30;2.55;;;23.30;99.90;;;;;;5017862;28;20041;-75
2022/08/10 08:16:05;;;;;;;5.57;2.97;;;23.40;99.90;;;;;;5012955;28;20618;-75
2022/08/10 08:18:33;;;;;;;4.30;2.53;;;23.40;99.90;;;;;;5028849;28;20053;-75
2022/08/10 08:20:59;;;;;;;6.35;3.00;;;23.50;99.90;;;;;;5036037;28;20033;-75
2022/08/10 08:23:27;;;;;;;6.88;2.97;;;23.60;99.90;;;;;;5028890;28;20531;-75
2022/08/10 08:25:53;;;;;;;5.05;2.80;;;23.60;99.90;;;;;;5018776;28;20143;-76
2022/08/10 08:28:20;;;;;;;4.63;2.80;;;23.70;99.90;;;;;;5012209;28;20492;-76
2022/08/10 08:30:47;;;;;;;3.35;2.80;;;23.80;99.90;;;;;;5011718;28;20037;-75
2022/08/10 08:33:16;;;;;;;4.20;2.90;;;23.80;99.90;;;;;;5013431;28;20104;-75
2022/08/10 08:35:44;;;;;;;4.10;2.40;;;23.90;99.90;;;;;;5011900;28;20038;-75
2022/08/10 08:38:11;;;;;;;4.35;2.25;;;23.90;99.90;;;;;;5012058;28;20065;-74
2022/08/10 08:40:39;;;;;;;3.97;2.80;;;24.00;99.90;;;;;;5012117;28;20065;-74
2022/08/10 08:43:22;;;;;;;5.43;2.65;;;24.10;99.90;;;;;;5012177;28;20053;-74
2022/08/10 08:46:27;;;;;;;4.13;2.67;;;24.10;99.90;;;;;;5011543;28;20042;-75
2022/08/10 08:49:30;;;;;;;4.63;2.50;;;24.20;99.90;;;;;;5011603;28;20098;-75
2022/08/10 08:51:59;;;;;;;4.53;2.38;;;24.30;99.90;;;;;;5011682;28;20041;-75
2022/08/10 08:54:47;;;;;;;3.72;2.20;;;24.30;99.90;;;;;;5024012;28;20121;-74
2022/08/10 08:57:42;;;;;;;6.53;2.20;;;24.30;99.90;;;;;;5023907;28;20096;-75
2022/08/10 09:00:13;;;;;;;3.90;2.08;;;24.30;99.90;;;;;;5018609;28;20492;-75
2022/08/10 09:03:20;;;;;;;6.22;2.75;;;24.30;99.90;;;;;;5029326;28;20076;-76
2022/08/10 09:06:01;;;;;;;3.97;1.92;;;24.30;99.90;;;;;;5017720;28;20049;-74
2022/08/10 09:08:26;;;;;;;4.55;1.90;;;24.30;99.90;;;;;;5029451;28;20132;-75
2022/08/10 09:11:23;;;;;;;4.45;2.03;;;24.30;99.90;;;;;;5030349;28;20116;-76
2022/08/10 09:14:08;;;;;;;6.47;2.40;;;24.30;99.90;;;;;;5028882;28;20048;-76
2022/08/10 09:16:52;;;;;;;4.45;2.05;;;24.30;99.90;;;;;;5029926;28;20029;-75
2022/08/10 09:19:46;;;;;;;5.18;2.20;;;24.30;99.90;;;;;;5031537;28;20053;-76
2022/08/10 09:22:24;;;;;;;3.40;2.30;;;24.30;99.90;;;;;;5031865;28;20094;-73
2022/08/10 09:25:11;;;;;;;4.50;2.10;;;24.20;99.90;;;;;;5030731;28;20384;-73
2022/08/10 09:27:46;;;;;;;4.20;2.33;;;24.30;99.90;;;;;;5029912;28;20046;-73
2022/08/10 09:30:15;;;;;;;3.50;2.10;;;24.30;99.90;;;;;;5031364;28;20084;-73
2022/08/10 09:32:47;;;;;;;4.35;2.00;;;24.20;99.90;;;;;;5030549;28;20094;-74
2022/08/10 09:35:42;;;;;;;4.30;2.00;;;24.20;99.90;;;;;;5030589;28;20033;-74
2022/08/10 09:38:14;;;;;;;3.03;1.80;;;24.20;99.90;;;;;;5030417;28;20033;-75
2022/08/10 09:41:06;;;;;;;3.45;1.92;;;24.20;99.90;;;;;;5020151;28;20057;-75
2022/08/10 09:43:55;;;;;;;3.38;1.92;;;24.30;99.90;;;;;;5023759;28;20156;-75
2022/08/10 09:47:06;;;;;;;4.28;2.13;;;24.40;99.90;;;;;;5015910;28;20416;-74
2022/08/10 09:49:47;;;;;;;3.70;2.03;;;24.40;99.90;;;;;;5030238;28;20095;-74
2022/08/10 09:52:15;;;;;;;4.25;1.98;;;24.40;99.90;;;;;;5031086;28;20037;-75
2022/08/10 09:54:59;;;;;;;5.32;1.83;;;24.40;99.90;;;;;;5030790;28;20040;-74
2022/08/10 09:57:32;;;;;;;4.35;2.13;;;24.50;99.90;;;;;;5031154;28;20080;-75
2022/08/10 10:00:10;;;;;;;4.63;1.70;;;24.60;99.90;;;;;;5031104;28;20137;-74
2022/08/10 10:03:05;;;;;;;2.88;1.90;;;24.60;99.90;;;;;;5013314;28;20033;-75
2022/08/10 10:05:30;;;;;;;;;;;24.70;99.90;;;;;;5027004;28;20045;-75
2022/08/10 10:08:20;;;;;;;4.90;2.17;;;24.70;99.90;;;;;;5030556;28;19925;-75
2022/08/10 10:11:16;;;;;;;3.42;1.95;;;24.80;99.90;;;;;;5030491;28;20037;-76
2022/08/10 10:13:48;;;;;;;3.92;1.90;;;24.90;99.90;;;;;;5029117;28;20044;-74
2022/08/10 10:16:31;;;;;;;6.75;2.28;;;24.90;99.90;;;;;;5030768;28;20033;-76
2022/08/10 10:19:32;;;;;;;6.72;1.90;;;25.10;99.90;;;;;;5029408;28;20038;-75
2022/08/10 10:22:35;;;;;;;5.13;2.03;;;25.10;99.90;;;;;;5021011;28;20128;-75
2022/08/10 10:25:08;;;;;;;4.95;1.80;;;25.20;99.90;;;;;;5030473;28;20041;-75
2022/08/10 10:27:47;;;;;;;3.28;1.75;;;25.20;99.90;;;;;;5030356;28;20072;-74
2022/08/10 10:30:16;;;;;;;2.30;1.70;;;25.30;99.90;;;;;;5030449;28;20038;-75
2022/08/10 10:32:55;;;;;;;3.67;1.50;;;25.30;99.90;;;;;;5030552;28;20061;-75
2022/08/10 10:35:35;;;;;;;3.85;1.80;;;25.40;99.90;;;;;;5030289;28;20553;-75
2022/08/10 10:38:03;;;;;;;3.42;1.52;;;25.50;99.90;;;;;;5030185;28;20112;-75
2022/08/10 10:40:47;;;;;;;3.03;1.30;;;25.60;99.90;;;;;;5030485;28;20127;-75
2022/08/10 10:43:40;;;;;;;2.38;1.20;;;25.70;99.90;;;;;;5029237;28;20048;-74
2022/08/10 10:46:39;;;;;;;4.18;1.70;;;25.80;99.90;;;;;;5030200;28;20072;-74
2022/08/10 10:49:36;;;;;;;4.78;1.67;;;25.90;99.90;;;;;;5019666;28;20057;-75
2022/08/10 10:52:12;;;;;;;4.65;1.65;;;25.90;99.70;;;;;;5022444;28;20044;-75
2022/08/10 10:55:03;;;;;;;3.95;1.40;;;26.10;99.80;;;;;;5033892;28;20045;-75
2022/08/10 10:57:52;;;;;;;5.15;1.63;;;26.10;99.80;;;;;;5033942;28;20123;-75
2022/08/10 11:00:22;;;;;;;2.83;1.48;;;26.40;99.90;;;;;;5012604;28;20103;-75
2022/08/10 11:03:22;;;;;;;3.08;1.20;;;26.40;99.80;;;;;;5016875;28;20466;-75
2022/08/10 11:06:08;;;;;;;2.35;1.70;;;26.60;99.00;;;;;;5033988;28;20160;-75
2022/08/10 11:08:38;;;;;;;2.53;1.35;;;26.70;98.40;;;;;;5033990;28;20037;-74
2022/08/10 11:11:22;;;;;;;3.83;1.48;;;26.80;98.70;;;;;;5034044;28;20037;-74
2022/08/10 11:14:05;;;;;;;3.80;1.40;;;26.80;98.30;;;;;;5032492;28;20056;-75
2022/08/10 11:16:55;;;;;;;3.42;1.50;;;26.90;98.30;;;;;;5034234;28;20038;-75
2022/08/10 11:19:32;;;;;;;3.55;1.60;;;27.00;97.90;;;;;;5033817;28;20411;-75
2022/08/10 11:22:18;;;;;;;5.07;1.65;;;27.20;96.10;;;;;;5033568;28;20037;-75
2022/08/10 11:25:00;;;;;;;3.58;1.25;;;27.20;97.70;;;;;;5033353;28;20073;-74
2022/08/10 11:28:04;;;;;;;4.15;1.30;;;27.40;97.50;;;;;;5032166;28;20080;-75
2022/08/10 11:30:48;;;;;;;2.20;1.10;;;27.50;96.90;;;;;;5032421;28;20046;-74
2022/08/10 11:33:23;;;;;;;4.45;1.45;;;27.60;96.50;;;;;;5033690;28;20044;-74
2022/08/10 11:36:14;;;;;;;27.10;4.63;;;27.70;96.30;;;;;;5033391;28;20044;-75
2022/08/10 11:38:46;;;;;;;3.13;1.20;;;27.90;95.60;;;;;;5033585;28;20076;-75
2022/08/10 11:41:39;;;;;;;2.85;1.30;;;28.10;96.20;;;;;;5033549;28;20040;-75
2022/08/10 11:44:36;;;;;;;2.88;1.20;;;28.20;95.10;;;;;;5033372;28;20049;-76
2022/08/10 11:47:22;;;;;;;1.90;1.00;;;28.30;95.90;;;;;;5015369;28;20518;-75
2022/08/10 11:50:08;;;;;;;2.47;1.30;;;28.40;95.10;;;;;;5026698;28;20439;-74
2022/08/10 11:52:58;;;;;;;3.60;1.20;;;28.50;94.40;;;;;;5032796;28;20033;-75
2022/08/10 11:55:31;;;;;;;2.85;1.27;;;28.70;94.40;;;;;;5032361;28;20048;-75
2022/08/10 12:01:01;;;;;;;4.65;1.00;;;29.00;94.10;;;;;;5032864;28;20045;-75
2022/08/10 12:03:30;;;;;;;3.47;1.20;;;29.20;94.10;;;;;;5032696;28;20063;-74
2022/08/10 12:05:56;;;;;;;3.00;1.20;;;29.30;93.80;;;;;;5032469;28;20049;-75
2022/08/10 12:08:25;;;;;;;4.78;1.30;;;29.30;93.10;;;;;;5032597;28;20046;-75
2022/08/10 12:10:53;;;;;;;2.30;1.10;;;29.50;93.20;;;;;;5033087;28;20103;-75
2022/08/10 12:13:35;;;;;;;2.35;0.85;;;29.70;93.30;;;;;;5032030;28;20495;-75
2022/08/10 12:16:11;;;;;;;2.42;1.10;;;29.60;92.10;;;;;;5034883;28;20064;-75
2022/08/10 12:19:03;;;;;;;3.47;1.20;;;29.80;92.80;;;;;;5035669;28;20111;-74
2022/08/10 12:21:39;;;;;;;2.13;1.20;;;29.90;92.20;;;;;;5032376;28;20443;-75
2022/08/10 12:24:17;;;;;;;2.65;1.27;;;30.10;92.10;;;;;;5034540;28;20051;-75
2022/08/10 12:27:15;;;;;;;3.13;1.35;;;30.10;91.70;;;;;;5034289;28;20067;-75
2022/08/10 12:29:54;;;;;;;4.47;1.10;;;30.30;91.60;;;;;;5046797;28;20220;-75
2022/08/10 12:32:40;;;;;;;3.65;1.23;;;30.40;91.60;;;;;;5039817;28;20033;-74
2022/08/10 12:35:29;;;;;;;2.15;1.27;;;30.50;91.60;;;;;;5027037;28;20037;-75
2022/08/10 12:38:20;;;;;;;2.25;1.40;;;30.60;91.30;;;;;;5020717;28;20070;-74
2022/08/10 12:40:55;;;;;;;1.63;1.05;;;30.80;91.00;;;;;;5026736;28;20112;-75
2022/08/10 12:44:10;;;;;;;3.53;1.35;;;30.80;89.80;;;;;;5022949;28;20041;-76
2022/08/10 12:46:54;;;;;;;1.60;1.20;;;30.80;89.30;;;;;;4978216;28;20061;-75
2022/08/10 12:49:45;;;;;;;1.98;1.10;;;31.00;90.20;;;;;;5019983;28;20046;-75
2022/08/10 12:52:18;;;;;;;1.40;1.00;;;31.10;89.50;;;;;;5031451;28;20045;-76
2022/08/10 12:54:45;;;;;;;5.72;1.17;;;31.20;89.00;;;;;;5028014;28;20377;-76
2022/08/10 12:57:14;;;;;;;2.22;1.10;;;31.20;88.60;;;;;;5045358;28;20040;-76
2022/08/10 12:59:47;;;;;;;2.65;1.02;;;31.30;87.60;;;;;;5031138;28;20198;-75
2022/08/10 13:02:18;;;;;;;2.05;1.13;;;31.40;86.60;;;;;;5024919;28;20067;-76
2022/08/10 13:04:48;;;;;;;1.58;1.10;;;31.40;88.90;;;;;;5031944;28;20501;-76
2022/08/10 13:07:24;;;;;;;2.00;1.02;;;31.60;88.20;;;;;;5027338;28;20071;-76
2022/08/10 13:09:49;;;;;;;0.93;0.70;;;31.60;87.10;;;;;;5029840;28;20041;-77
2022/08/10 13:12:18;;;;;;;2.17;0.75;;;31.60;86.50;;;;;;5030115;28;20407;-76
2022/08/10 13:14:51;;;;;;;4.80;1.27;;;31.80;85.30;;;;;;5026990;28;20041;-75
2022/08/10 13:17:37;;;;;;;4.15;1.30;;;31.70;85.80;;;;;;5033482;28;20072;-76
2022/08/10 13:20:12;;;;;;;2.13;1.10;;;31.80;86.60;;;;;;5033544;28;20046;-76
2022/08/10 13:22:38;;;;;;;1.98;1.00;;;31.90;86.00;;;;;;5033184;28;20168;-75
2022/08/10 13:25:07;;;;;;;2.30;1.10;;;31.90;85.90;;;;;;5031952;28;20042;-75
2022/08/10 13:27:38;;;;;;;2.97;0.80;;;31.90;85.70;;;;;;5028191;28;20124;-76